createdAt,value
2019-03-13T00:00:20.003Z,7.79
2019-03-13T00:01:19.974Z,7.82
2019-03-13T00:02:19.998Z,7.82
2019-03-13T00:03:19.951Z,7.85
2019-03-13T00:04:19.968Z,7.81
2019-03-13T00:05:19.940Z,7.75
2019-03-13T00:06:19.937Z,7.69
2019-03-13T00:07:19.904Z,7.69
2019-03-13T00:08:19.901Z,7.79
2019-03-13T00:09:19.883Z,7.69
2019-03-13T00:10:19.914Z,7.75
2019-03-13T00:11:19.860Z,7.81
2019-03-13T00:12:19.960Z,7.81
2019-03-13T00:13:19.839Z,7.84
2019-03-13T00:14:19.826Z,7.84
2019-03-13T00:15:19.819Z,7.82
2019-03-13T00:16:19.817Z,7.84
2019-03-13T00:17:19.794Z,7.77
2019-03-13T00:18:19.786Z,7.82
2019-03-13T00:19:19.773Z,7.82
2019-03-13T00:20:19.760Z,7.79
2019-03-13T00:21:19.760Z,7.81
2019-03-13T00:22:19.738Z,7.79
2019-03-13T00:23:19.732Z,7.92
2019-03-13T00:24:19.718Z,7.90
2019-03-13T00:25:19.709Z,7.92
2019-03-13T00:26:19.709Z,7.82
2019-03-13T00:27:19.681Z,7.66
2019-03-13T00:28:19.673Z,7.40
2019-03-13T00:29:19.665Z,7.22
2019-03-13T00:30:19.659Z,6.91
2019-03-13T00:31:19.641Z,6.76
2019-03-13T00:32:19.629Z,6.66
2019-03-13T00:33:19.618Z,6.56
2019-03-13T00:34:19.621Z,6.44
2019-03-13T00:35:19.603Z,6.32
2019-03-13T00:36:19.578Z,6.13
2019-03-13T00:37:21.271Z,6.06
2019-03-13T00:38:19.555Z,5.98
2019-03-13T00:39:19.553Z,5.91
2019-03-13T00:40:19.535Z,5.88
2019-03-13T00:41:19.538Z,5.82
2019-03-13T00:42:19.515Z,5.67
2019-03-13T00:43:19.611Z,5.66
2019-03-13T00:44:19.491Z,5.68
2019-03-13T00:45:19.488Z,5.64
2019-03-13T00:46:19.508Z,5.57
2019-03-13T00:47:19.456Z,5.66
2019-03-13T00:48:19.444Z,5.66
2019-03-13T00:49:19.449Z,5.56
2019-03-13T00:50:19.422Z,5.56
2019-03-13T00:51:19.417Z,5.66
2019-03-13T00:52:19.400Z,5.55
2019-03-13T00:53:19.388Z,5.60
2019-03-13T00:54:19.403Z,5.63
2019-03-13T00:55:19.369Z,5.64
2019-03-13T00:56:19.356Z,5.64
2019-03-13T00:57:19.355Z,5.59
2019-03-13T00:58:19.341Z,5.60
2019-03-13T00:59:19.322Z,5.57
2019-03-13T01:00:19.329Z,5.52
2019-03-13T01:01:19.298Z,5.56
2019-03-13T01:02:19.295Z,5.52
2019-03-13T01:03:19.282Z,5.53
2019-03-13T01:04:19.272Z,5.41
2019-03-13T01:05:19.253Z,5.46
2019-03-13T01:06:19.261Z,5.38
2019-03-13T01:07:19.244Z,5.38
2019-03-13T01:08:19.220Z,5.46
2019-03-13T01:09:19.215Z,5.41
2019-03-13T01:10:19.201Z,5.41
2019-03-13T01:11:19.215Z,5.45
2019-03-13T01:12:19.175Z,5.37
2019-03-13T01:13:19.164Z,5.34
2019-03-13T01:14:19.152Z,5.38
2019-03-13T01:15:19.149Z,5.38
2019-03-13T01:16:19.128Z,5.38
2019-03-13T01:17:19.131Z,5.34
2019-03-13T01:18:19.105Z,5.37
2019-03-13T01:19:19.096Z,5.30
2019-03-13T01:20:19.085Z,5.25
2019-03-13T01:21:19.077Z,5.37
2019-03-13T01:22:19.097Z,5.27
2019-03-13T01:23:19.055Z,5.25
2019-03-13T01:24:19.039Z,5.30
2019-03-13T01:25:19.028Z,5.28
2019-03-13T01:26:19.018Z,5.27
2019-03-13T01:27:19.014Z,5.35
2019-03-13T01:28:19.005Z,5.31
2019-03-13T01:29:18.989Z,5.22
2019-03-13T01:30:18.973Z,5.22
2019-03-13T01:31:18.959Z,5.28
2019-03-13T01:32:18.962Z,5.17
2019-03-13T01:33:18.956Z,5.19
2019-03-13T01:34:18.927Z,5.13
2019-03-13T01:35:18.915Z,5.14
2019-03-13T01:36:18.905Z,5.09
2019-03-13T01:37:18.919Z,5.02
2019-03-13T01:38:18.884Z,5.01
2019-03-13T01:39:18.874Z,5.04
2019-03-13T01:40:18.876Z,4.99
2019-03-13T01:41:18.847Z,4.95
2019-03-13T01:42:18.838Z,5.09
2019-03-13T01:43:18.838Z,5.02
2019-03-13T01:44:18.826Z,5.02
2019-03-13T01:45:18.812Z,4.94
2019-03-13T01:46:18.792Z,4.91
2019-03-13T01:47:18.788Z,4.91
2019-03-13T01:48:18.790Z,4.76
2019-03-13T01:49:18.758Z,4.70
2019-03-13T01:50:18.759Z,4.77
2019-03-13T01:51:18.742Z,4.64
2019-03-13T01:52:18.724Z,4.61
2019-03-13T01:53:18.713Z,4.62
2019-03-13T01:54:18.702Z,4.64
2019-03-13T01:55:18.704Z,4.62
2019-03-13T01:56:18.680Z,4.67
2019-03-13T01:57:18.676Z,4.67
2019-03-13T01:58:18.659Z,4.67
2019-03-13T01:59:18.650Z,4.52
2019-03-13T02:00:18.649Z,4.59
2019-03-13T02:01:18.632Z,4.65
2019-03-13T02:02:18.613Z,4.61
2019-03-13T02:03:18.634Z,4.69
2019-03-13T02:04:18.592Z,4.77
2019-03-13T02:05:18.590Z,4.76
2019-03-13T02:06:18.571Z,4.77
2019-03-13T02:07:18.556Z,4.79
2019-03-13T02:08:18.546Z,4.80
2019-03-13T02:09:18.552Z,4.79
2019-03-13T02:10:18.540Z,4.83
2019-03-13T02:11:18.515Z,4.77
2019-03-13T02:12:18.503Z,4.75
2019-03-13T02:13:18.506Z,4.70
2019-03-13T02:14:18.482Z,4.73
2019-03-13T02:15:18.467Z,4.76
2019-03-13T02:16:18.469Z,4.65
2019-03-13T02:17:18.450Z,4.73
2019-03-13T02:18:18.549Z,4.69
2019-03-13T02:19:18.423Z,4.70
2019-03-13T02:20:18.420Z,4.76
2019-03-13T02:21:18.402Z,4.73
2019-03-13T02:22:18.397Z,4.77
2019-03-13T02:23:18.383Z,4.79
2019-03-13T02:24:18.390Z,4.86
2019-03-13T02:25:18.455Z,4.67
2019-03-13T02:26:18.347Z,4.73
2019-03-13T02:27:18.335Z,4.76
2019-03-13T02:28:18.360Z,4.75
2019-03-13T02:29:18.312Z,4.77
2019-03-13T02:30:18.308Z,4.80
2019-03-13T02:31:18.300Z,4.79
2019-03-13T02:32:18.280Z,4.86
2019-03-13T02:33:18.267Z,4.89
2019-03-13T02:34:18.269Z,4.80
2019-03-13T02:35:18.260Z,4.77
2019-03-13T02:36:18.237Z,4.72
2019-03-13T02:37:18.229Z,4.84
2019-03-13T02:38:18.212Z,4.73
2019-03-13T02:39:18.235Z,4.79
2019-03-13T02:40:18.201Z,4.80
2019-03-13T02:41:18.181Z,4.89
2019-03-13T02:42:18.168Z,4.77
2019-03-13T02:43:18.162Z,4.77
2019-03-13T02:44:18.146Z,4.77
2019-03-13T02:45:18.148Z,4.76
2019-03-13T02:46:18.126Z,4.76
2019-03-13T02:47:19.207Z,4.76
2019-03-13T02:48:18.107Z,4.80
2019-03-13T02:49:18.097Z,4.75
2019-03-13T02:50:18.112Z,4.79
2019-03-13T02:51:18.069Z,4.79
2019-03-13T02:52:18.059Z,4.67
2019-03-13T02:53:18.059Z,4.76
2019-03-13T02:54:18.036Z,4.75
2019-03-13T02:55:18.068Z,4.77
2019-03-13T02:56:18.012Z,4.76
2019-03-13T02:57:18.002Z,4.76
2019-03-13T02:58:17.991Z,4.79
2019-03-13T02:59:17.980Z,4.77
2019-03-13T03:00:17.967Z,4.77
2019-03-13T03:01:17.978Z,4.79
2019-03-13T03:02:17.944Z,4.79
2019-03-13T03:03:17.954Z,4.79
2019-03-13T03:04:17.927Z,4.70
2019-03-13T03:05:17.915Z,4.75
2019-03-13T03:06:17.901Z,4.77
2019-03-13T03:07:17.898Z,4.80
2019-03-13T03:08:17.946Z,4.79
2019-03-13T03:09:17.866Z,4.77
2019-03-13T03:10:17.866Z,4.84
2019-03-13T03:11:17.844Z,4.83
2019-03-13T03:12:17.835Z,4.76
2019-03-13T03:13:17.830Z,4.76
2019-03-13T03:14:17.833Z,4.76
2019-03-13T03:15:17.824Z,4.77
2019-03-13T03:16:17.789Z,4.79
2019-03-13T03:17:17.891Z,4.79
2019-03-13T03:18:17.766Z,4.83
2019-03-13T03:19:17.766Z,4.73
2019-03-13T03:20:17.756Z,4.69
2019-03-13T03:21:17.732Z,4.79
2019-03-13T03:22:17.725Z,4.65
2019-03-13T03:23:17.717Z,4.73
2019-03-13T03:24:17.704Z,4.69
2019-03-13T03:25:17.724Z,4.77
2019-03-13T03:26:17.685Z,4.64
2019-03-13T03:27:17.664Z,4.64
2019-03-13T03:28:17.653Z,4.67
2019-03-13T03:29:17.650Z,4.64
2019-03-13T03:30:17.635Z,4.57
2019-03-13T03:31:17.653Z,4.51
2019-03-13T03:32:17.615Z,4.42
2019-03-13T03:33:17.598Z,4.37
2019-03-13T03:34:17.586Z,4.32
2019-03-13T03:35:17.591Z,4.28
2019-03-13T03:36:17.583Z,4.21
2019-03-13T03:37:17.563Z,4.22
2019-03-13T03:38:17.541Z,4.22
2019-03-13T03:39:17.534Z,4.19
2019-03-13T03:40:21.756Z,4.19
2019-03-13T03:41:18.520Z,4.08
2019-03-13T03:42:17.497Z,4.10
2019-03-13T03:43:17.504Z,4.03
2019-03-13T03:44:17.477Z,4.01
2019-03-13T03:45:17.464Z,3.97
2019-03-13T03:46:17.454Z,4.07
2019-03-13T03:47:17.464Z,4.04
2019-03-13T03:48:17.438Z,3.97
2019-03-13T03:49:17.426Z,3.92
2019-03-13T03:50:17.419Z,3.89
2019-03-13T03:51:17.395Z,3.85
2019-03-13T03:52:17.392Z,3.90
2019-03-13T03:53:17.388Z,3.79
2019-03-13T03:54:17.363Z,3.90
2019-03-13T03:55:17.369Z,3.83
2019-03-13T03:56:17.343Z,3.92
2019-03-13T03:57:17.339Z,3.88
2019-03-13T03:58:17.344Z,3.83
2019-03-13T03:59:17.335Z,3.78
2019-03-13T04:00:17.316Z,3.70
2019-03-13T04:01:17.302Z,3.62
2019-03-13T04:02:17.318Z,3.71
2019-03-13T04:03:17.269Z,3.70
2019-03-13T04:04:17.288Z,3.67
2019-03-13T04:05:17.244Z,3.64
2019-03-13T04:06:17.230Z,3.67
2019-03-13T04:07:17.226Z,3.82
2019-03-13T04:08:17.253Z,3.78
2019-03-13T04:09:17.211Z,3.78
2019-03-13T04:10:17.201Z,3.72
2019-03-13T04:11:17.179Z,3.68
2019-03-13T04:12:17.195Z,3.67
2019-03-13T04:13:17.163Z,3.67
2019-03-13T04:14:17.151Z,3.67
2019-03-13T04:15:17.184Z,3.67
2019-03-13T04:16:17.130Z,3.68
2019-03-13T04:17:17.107Z,3.68
2019-03-13T04:18:17.098Z,3.78
2019-03-13T04:19:17.106Z,3.85
2019-03-13T04:20:17.081Z,3.85
2019-03-13T04:21:17.086Z,3.80
2019-03-13T04:22:17.062Z,3.92
2019-03-13T04:23:17.045Z,3.96
2019-03-13T04:24:17.032Z,4.00
2019-03-13T04:25:17.028Z,3.96
2019-03-13T04:26:17.010Z,3.96
2019-03-13T04:27:17.023Z,4.10
2019-03-13T04:28:16.987Z,4.03
2019-03-13T04:29:16.978Z,4.19
2019-03-13T04:30:16.968Z,4.16
2019-03-13T04:31:16.960Z,4.22
2019-03-13T04:32:16.941Z,4.14
2019-03-13T04:33:16.945Z,4.12
2019-03-13T04:34:16.919Z,4.10
2019-03-13T04:35:16.910Z,4.00
2019-03-13T04:36:16.898Z,4.08
2019-03-13T04:37:17.899Z,3.96
2019-03-13T04:38:16.892Z,3.97
2019-03-13T04:39:16.865Z,4.03
2019-03-13T04:40:16.853Z,3.96
2019-03-13T04:41:16.858Z,4.00
2019-03-13T04:42:16.833Z,4.00
2019-03-13T04:43:16.825Z,3.98
2019-03-13T04:44:16.808Z,4.03
2019-03-13T04:45:16.796Z,4.01
2019-03-13T04:46:16.800Z,4.00
2019-03-13T04:47:16.775Z,4.07
2019-03-13T04:48:16.775Z,4.22
2019-03-13T04:49:16.766Z,4.24
2019-03-13T04:50:16.742Z,4.36
2019-03-13T04:51:16.729Z,4.37
2019-03-13T04:52:16.719Z,4.37
2019-03-13T04:53:16.718Z,4.37
2019-03-13T04:54:16.707Z,4.51
2019-03-13T04:55:16.694Z,4.37
2019-03-13T04:56:16.686Z,4.42
2019-03-13T04:57:16.664Z,4.50
2019-03-13T04:58:16.666Z,4.59
2019-03-13T04:59:16.644Z,4.58
2019-03-13T05:00:16.632Z,4.54
2019-03-13T05:01:16.641Z,4.46
2019-03-13T05:02:16.608Z,4.54
2019-03-13T05:03:16.612Z,4.50
2019-03-13T05:04:16.585Z,4.44
2019-03-13T05:05:16.590Z,4.51
2019-03-13T05:06:16.568Z,4.42
2019-03-13T05:07:16.567Z,4.46
2019-03-13T05:08:16.555Z,4.42
2019-03-13T05:09:16.537Z,4.44
2019-03-13T05:10:16.522Z,4.37
2019-03-13T05:11:16.580Z,4.44
2019-03-13T05:12:16.509Z,4.42
2019-03-13T05:13:16.518Z,4.34
2019-03-13T05:14:16.478Z,4.50
2019-03-13T05:15:16.465Z,4.44
2019-03-13T05:16:16.459Z,4.47
2019-03-13T05:17:16.443Z,4.50
2019-03-13T05:18:16.445Z,4.54
2019-03-13T05:19:16.428Z,4.52
2019-03-13T05:20:16.411Z,4.50
2019-03-13T05:21:16.399Z,4.51
2019-03-13T05:22:16.394Z,4.52
2019-03-13T05:23:16.396Z,4.54
2019-03-13T05:24:16.366Z,4.55
2019-03-13T05:25:19.083Z,4.64
2019-03-13T05:26:16.363Z,4.55
2019-03-13T05:27:16.332Z,4.55
2019-03-13T05:28:16.321Z,4.57
2019-03-13T05:29:16.324Z,4.62
2019-03-13T05:30:16.315Z,4.61
2019-03-13T05:31:16.293Z,4.65
2019-03-13T05:32:16.277Z,4.76
2019-03-13T05:33:16.296Z,4.67
2019-03-13T05:34:16.257Z,4.75
2019-03-13T05:35:16.245Z,4.79
2019-03-13T05:36:16.981Z,4.83
2019-03-13T05:37:16.228Z,4.77
2019-03-13T05:38:16.210Z,4.76
2019-03-13T05:39:16.214Z,4.75
2019-03-13T05:40:16.192Z,4.79
2019-03-13T05:41:16.177Z,4.83
2019-03-13T05:42:16.166Z,4.80
2019-03-13T05:43:16.163Z,4.89
2019-03-13T05:44:16.146Z,4.92
2019-03-13T05:45:16.156Z,4.92
2019-03-13T05:46:16.123Z,4.88
2019-03-13T05:47:16.112Z,4.94
2019-03-13T05:48:16.098Z,4.95
2019-03-13T05:49:16.102Z,4.95
2019-03-13T05:50:16.083Z,4.96
2019-03-13T05:51:16.105Z,5.04
2019-03-13T05:52:16.056Z,4.95
2019-03-13T05:53:16.043Z,4.95
2019-03-13T05:54:16.033Z,5.05
2019-03-13T05:55:16.024Z,5.02
2019-03-13T05:56:16.017Z,5.07
2019-03-13T05:57:16.135Z,5.12
2019-03-13T05:58:15.986Z,5.05
2019-03-13T05:59:15.977Z,5.07
2019-03-13T06:00:15.966Z,5.16
2019-03-13T06:01:15.959Z,5.12
2019-03-13T06:02:15.942Z,5.12
2019-03-13T06:03:15.955Z,5.13
2019-03-13T06:04:15.920Z,5.12
2019-03-13T06:05:15.909Z,5.14
2019-03-13T06:06:15.900Z,5.12
2019-03-13T06:07:15.891Z,5.19
2019-03-13T06:08:18.354Z,5.25
2019-03-13T06:09:15.878Z,5.25
2019-03-13T06:10:15.854Z,5.20
2019-03-13T06:11:15.844Z,5.32
2019-03-13T06:12:15.832Z,5.22
2019-03-13T06:13:15.847Z,5.30
2019-03-13T06:14:15.815Z,5.28
2019-03-13T06:15:15.808Z,5.27
2019-03-13T06:16:15.790Z,5.31
2019-03-13T06:17:15.775Z,5.34
2019-03-13T06:18:15.765Z,5.30
2019-03-13T06:19:15.768Z,5.31
2019-03-13T06:20:15.775Z,5.32
2019-03-13T06:21:15.730Z,5.25
2019-03-13T06:22:15.718Z,5.34
2019-03-13T06:23:15.705Z,5.35
2019-03-13T06:24:15.695Z,5.34
2019-03-13T06:25:15.711Z,5.41
2019-03-13T06:26:15.691Z,5.46
2019-03-13T06:27:15.661Z,5.43
2019-03-13T06:28:15.651Z,5.38
2019-03-13T06:29:15.640Z,5.38
2019-03-13T06:30:15.630Z,5.37
2019-03-13T06:31:15.628Z,5.40
2019-03-13T06:32:15.609Z,5.40
2019-03-13T06:33:15.594Z,5.43
2019-03-13T06:34:15.585Z,5.49
2019-03-13T06:35:15.617Z,5.53
2019-03-13T06:36:15.573Z,5.48
2019-03-13T06:37:15.548Z,5.48
2019-03-13T06:38:15.548Z,5.49
2019-03-13T06:39:15.527Z,5.59
2019-03-13T06:40:15.513Z,5.59
2019-03-13T06:41:15.517Z,5.59
2019-03-13T06:42:15.490Z,5.57
2019-03-13T06:43:15.489Z,5.55
2019-03-13T06:44:15.480Z,5.55
2019-03-13T06:45:15.459Z,5.57
2019-03-13T06:46:15.481Z,5.60
2019-03-13T06:47:15.436Z,5.57
2019-03-13T06:48:15.426Z,5.59
2019-03-13T06:49:15.414Z,5.56
2019-03-13T06:50:15.414Z,5.55
2019-03-13T06:51:15.389Z,5.59
2019-03-13T06:52:15.420Z,5.64
2019-03-13T06:53:15.369Z,5.57
2019-03-13T06:54:15.364Z,5.55
2019-03-13T06:55:15.348Z,5.64
2019-03-13T06:56:15.341Z,5.56
2019-03-13T06:57:15.323Z,5.63
2019-03-13T06:58:15.333Z,5.59
2019-03-13T06:59:15.315Z,5.55
2019-03-13T07:00:15.292Z,5.53
2019-03-13T07:01:15.310Z,5.59
2019-03-13T07:02:15.285Z,5.57
2019-03-13T07:03:15.260Z,5.64
2019-03-13T07:04:15.244Z,5.70
2019-03-13T07:05:15.235Z,5.75
2019-03-13T07:06:15.226Z,5.64
2019-03-13T07:07:15.258Z,5.74
2019-03-13T07:08:15.204Z,5.77
2019-03-13T07:09:15.188Z,5.75
2019-03-13T07:10:15.180Z,5.71
2019-03-13T07:11:15.166Z,5.74
2019-03-13T07:12:15.259Z,5.78
2019-03-13T07:13:15.157Z,5.73
2019-03-13T07:14:15.174Z,5.82
2019-03-13T07:15:15.122Z,5.83
2019-03-13T07:16:15.109Z,5.74
2019-03-13T07:17:15.138Z,5.78
2019-03-13T07:18:15.087Z,5.82
2019-03-13T07:19:15.079Z,5.92
2019-03-13T07:20:15.145Z,5.89
2019-03-13T07:21:15.055Z,5.88
2019-03-13T07:22:15.045Z,5.89
2019-03-13T07:23:15.045Z,5.88
2019-03-13T07:24:15.024Z,5.81
2019-03-13T07:25:15.011Z,5.86
2019-03-13T07:26:15.018Z,5.86
2019-03-13T07:27:14.990Z,5.86
2019-03-13T07:28:15.008Z,5.89
2019-03-13T07:29:14.973Z,5.95
2019-03-13T07:30:14.955Z,6.01
2019-03-13T07:31:14.943Z,6.01
2019-03-13T07:32:14.947Z,6.01
2019-03-13T07:33:14.929Z,6.06
2019-03-13T07:34:14.921Z,6.11
2019-03-13T07:35:14.898Z,6.13
2019-03-13T07:36:14.887Z,6.14
2019-03-13T07:37:14.908Z,6.11
2019-03-13T07:38:15.857Z,6.16
2019-03-13T07:39:14.857Z,6.16
2019-03-13T07:40:14.852Z,6.25
2019-03-13T07:41:14.832Z,6.29
2019-03-13T07:42:14.826Z,6.35
2019-03-13T07:43:14.827Z,6.35
2019-03-13T07:44:14.796Z,6.38
2019-03-13T07:45:14.838Z,6.38
2019-03-13T07:46:14.776Z,6.35
2019-03-13T07:47:14.765Z,6.36
2019-03-13T07:48:14.758Z,6.32
2019-03-13T07:49:14.741Z,6.30
2019-03-13T07:50:14.737Z,6.36
2019-03-13T07:51:14.744Z,6.40
2019-03-13T07:52:14.707Z,6.46
2019-03-13T07:53:14.697Z,6.47
2019-03-13T07:54:14.685Z,6.43
2019-03-13T07:55:14.673Z,6.46
2019-03-13T07:56:14.671Z,6.33
2019-03-13T07:57:14.664Z,6.28
2019-03-13T07:58:14.654Z,6.36
2019-03-13T07:59:14.629Z,6.32
2019-03-13T08:00:14.625Z,6.33
2019-03-13T08:01:14.607Z,6.43
2019-03-13T08:02:14.604Z,6.53
2019-03-13T08:03:14.611Z,6.44
2019-03-13T08:04:14.572Z,6.53
2019-03-13T08:05:14.563Z,6.66
2019-03-13T08:06:14.558Z,6.58
2019-03-13T08:07:14.539Z,6.56
2019-03-13T08:08:14.555Z,6.59
2019-03-13T08:09:14.519Z,6.63
2019-03-13T08:10:14.506Z,6.61
2019-03-13T08:11:14.494Z,6.61
2019-03-13T08:12:14.484Z,6.58
2019-03-13T08:13:14.504Z,6.62
2019-03-13T08:14:14.467Z,6.63
2019-03-13T08:15:14.451Z,6.81
2019-03-13T08:16:14.440Z,6.72
2019-03-13T08:17:14.427Z,6.83
2019-03-13T08:18:14.428Z,6.80
2019-03-13T08:19:14.416Z,6.87
2019-03-13T08:20:14.402Z,6.87
2019-03-13T08:21:14.383Z,6.86
2019-03-13T08:22:14.377Z,6.94
2019-03-13T08:23:14.359Z,6.84
2019-03-13T08:24:14.389Z,6.90
2019-03-13T08:25:14.346Z,6.95
2019-03-13T08:26:14.334Z,6.94
2019-03-13T08:27:14.323Z,6.95
2019-03-13T08:28:14.351Z,6.95
2019-03-13T08:29:14.292Z,6.95
2019-03-13T08:30:14.294Z,6.95
2019-03-13T08:31:14.272Z,6.90
2019-03-13T08:32:14.266Z,6.94
2019-03-13T08:33:14.252Z,7.01
2019-03-13T08:34:14.238Z,6.94
2019-03-13T08:35:14.263Z,6.91
2019-03-13T08:36:14.214Z,6.90
2019-03-13T08:37:14.202Z,6.95
2019-03-13T08:38:14.194Z,6.97
2019-03-13T08:39:14.180Z,7.13
2019-03-13T08:40:14.170Z,7.16
2019-03-13T08:41:14.180Z,7.27
2019-03-13T08:42:14.150Z,7.32
2019-03-13T08:43:14.136Z,7.40
2019-03-13T08:44:14.127Z,7.41
2019-03-13T08:45:14.128Z,7.47
2019-03-13T08:46:14.112Z,7.49
2019-03-13T08:47:14.089Z,7.47
2019-03-13T08:48:14.079Z,7.49
2019-03-13T08:49:14.068Z,7.52
2019-03-13T08:50:14.065Z,7.45
2019-03-13T08:51:14.079Z,7.49
2019-03-13T08:52:14.037Z,7.29
2019-03-13T08:53:14.022Z,7.31
2019-03-13T08:54:14.013Z,7.37
2019-03-13T08:55:14.002Z,7.41
2019-03-13T08:56:13.996Z,7.40
2019-03-13T08:57:13.989Z,7.45
2019-03-13T08:58:13.966Z,7.44
2019-03-13T08:59:13.958Z,7.58
2019-03-13T09:00:13.943Z,7.56
2019-03-13T09:01:13.936Z,7.59
2019-03-13T09:02:13.941Z,7.66
2019-03-13T09:03:13.910Z,7.63
2019-03-13T09:04:13.898Z,7.72
2019-03-13T09:05:13.886Z,7.79
2019-03-13T09:06:14.079Z,7.87
2019-03-13T09:07:13.872Z,7.93
2019-03-13T09:08:13.865Z,7.87
2019-03-13T09:09:13.843Z,7.99
2019-03-13T09:10:13.832Z,7.97
2019-03-13T09:11:13.834Z,8.07
2019-03-13T09:12:13.810Z,7.97
2019-03-13T09:13:13.813Z,7.92
2019-03-13T09:14:13.819Z,7.82
2019-03-13T09:15:13.775Z,7.89
2019-03-13T09:16:13.763Z,7.90
2019-03-13T09:17:13.753Z,7.85
2019-03-13T09:18:13.742Z,7.96
2019-03-13T09:19:13.734Z,7.94
2019-03-13T09:20:13.753Z,8.10
2019-03-13T09:21:13.707Z,8.07
2019-03-13T09:22:13.698Z,8.20
2019-03-13T09:23:13.687Z,8.20
2019-03-13T09:24:13.676Z,8.29
2019-03-13T09:25:13.665Z,8.32
2019-03-13T09:26:13.670Z,8.33
2019-03-13T09:27:13.643Z,8.36
2019-03-13T09:28:13.634Z,8.47
2019-03-13T09:29:13.653Z,8.47
2019-03-13T09:30:13.609Z,8.48
2019-03-13T09:31:13.611Z,8.62
2019-03-13T09:32:13.595Z,8.62
2019-03-13T09:33:13.574Z,8.68
2019-03-13T09:34:13.564Z,8.72
2019-03-13T09:35:13.552Z,8.78
2019-03-13T09:36:13.554Z,8.72
2019-03-13T09:37:13.540Z,8.68
2019-03-13T09:38:13.529Z,8.72
2019-03-13T09:39:13.514Z,8.62
2019-03-13T09:40:13.493Z,8.81
2019-03-13T09:41:13.524Z,8.75
2019-03-13T09:42:13.478Z,8.69
2019-03-13T09:43:13.460Z,8.58
2019-03-13T09:44:13.453Z,8.60
2019-03-13T09:45:13.441Z,8.54
2019-03-13T09:46:13.427Z,8.58
2019-03-13T09:47:13.428Z,8.53
2019-03-13T09:48:13.402Z,8.40
2019-03-13T09:49:14.841Z,8.39
2019-03-13T09:50:13.383Z,8.29
2019-03-13T09:51:13.383Z,8.32
2019-03-13T09:52:13.391Z,8.40
2019-03-13T09:53:13.347Z,8.33
2019-03-13T09:54:13.335Z,8.42
2019-03-13T09:55:13.324Z,8.53
2019-03-13T09:56:13.312Z,8.53
2019-03-13T09:57:13.316Z,8.53
2019-03-13T09:58:13.322Z,8.48
2019-03-13T09:59:13.279Z,8.57
2019-03-13T10:00:13.266Z,8.58
2019-03-13T10:01:13.256Z,8.66
2019-03-13T10:02:13.248Z,8.66
2019-03-13T10:03:13.250Z,8.73
2019-03-13T10:04:13.257Z,8.78
2019-03-13T10:05:13.212Z,8.81
2019-03-13T10:06:13.199Z,8.83
2019-03-13T10:07:13.190Z,8.76
2019-03-13T10:08:13.268Z,8.75
2019-03-13T10:09:13.169Z,8.62
2019-03-13T10:10:13.179Z,8.62
2019-03-13T10:11:13.143Z,8.57
2019-03-13T10:12:13.134Z,8.58
2019-03-13T10:13:13.124Z,8.60
2019-03-13T10:14:13.108Z,8.58
2019-03-13T10:15:13.104Z,8.55
2019-03-13T10:16:13.110Z,8.66
2019-03-13T10:17:13.081Z,8.60
2019-03-13T10:18:13.061Z,8.54
2019-03-13T10:19:13.052Z,8.45
2019-03-13T10:20:13.040Z,8.53
2019-03-13T10:21:13.041Z,8.53
2019-03-13T10:22:13.031Z,8.48
2019-03-13T10:23:13.005Z,8.47
2019-03-13T10:24:12.993Z,8.53
2019-03-13T10:25:12.983Z,8.54
2019-03-13T10:26:12.971Z,8.54
2019-03-13T10:27:12.999Z,8.55
2019-03-13T10:28:12.949Z,8.63
2019-03-13T10:29:12.937Z,8.65
2019-03-13T10:30:12.931Z,8.65
2019-03-13T10:31:12.916Z,8.73
2019-03-13T10:32:12.906Z,8.65
2019-03-13T10:33:12.908Z,8.71
2019-03-13T10:34:12.886Z,8.57
2019-03-13T10:35:12.869Z,8.57
2019-03-13T10:36:12.860Z,8.51
2019-03-13T10:37:12.846Z,8.51
2019-03-13T10:38:14.378Z,8.45
2019-03-13T10:39:12.827Z,8.58
2019-03-13T10:40:12.813Z,8.57
2019-03-13T10:41:12.801Z,8.63
2019-03-13T10:42:12.790Z,8.54
2019-03-13T10:43:12.793Z,8.69
2019-03-13T10:44:12.773Z,8.66
2019-03-13T10:45:12.761Z,8.75
2019-03-13T10:46:12.835Z,8.66
2019-03-13T10:47:12.738Z,8.60
2019-03-13T10:48:12.739Z,8.62
2019-03-13T10:49:12.756Z,8.54
2019-03-13T10:50:12.718Z,8.55
2019-03-13T10:51:12.692Z,8.50
2019-03-13T10:52:12.676Z,8.60
2019-03-13T10:53:12.663Z,8.62
2019-03-13T10:54:12.659Z,8.69
2019-03-13T10:55:12.672Z,8.65
2019-03-13T10:56:12.634Z,8.55
2019-03-13T10:57:12.629Z,8.54
2019-03-13T10:58:12.612Z,8.53
2019-03-13T10:59:12.601Z,8.48
2019-03-13T11:00:12.599Z,8.42
2019-03-13T11:01:12.572Z,8.36
2019-03-13T11:02:12.561Z,8.32
2019-03-13T11:03:12.559Z,8.32
2019-03-13T11:04:12.540Z,8.39
2019-03-13T11:05:12.541Z,8.26
2019-03-13T11:06:12.562Z,8.29
2019-03-13T11:07:12.505Z,8.40
2019-03-13T11:08:12.494Z,8.48
2019-03-13T11:09:12.488Z,8.48
2019-03-13T11:10:12.472Z,8.50
2019-03-13T11:11:12.459Z,8.37
2019-03-13T11:12:12.462Z,8.36
2019-03-13T11:13:12.443Z,8.45
2019-03-13T11:14:15.826Z,8.47
2019-03-13T11:15:12.419Z,8.58
2019-03-13T11:16:12.404Z,8.62
2019-03-13T11:17:12.421Z,8.58
2019-03-13T11:18:12.380Z,8.51
2019-03-13T11:19:12.370Z,8.54
2019-03-13T11:20:12.358Z,8.60
2019-03-13T11:21:12.379Z,8.71
2019-03-13T11:22:12.340Z,8.72
2019-03-13T11:23:12.351Z,8.69
2019-03-13T11:24:12.322Z,8.58
2019-03-13T11:25:12.302Z,8.62
2019-03-13T11:26:12.298Z,8.66
2019-03-13T11:27:12.286Z,8.72
2019-03-13T11:28:12.265Z,8.84
2019-03-13T11:29:12.269Z,8.91
2019-03-13T11:30:12.243Z,8.90
2019-03-13T11:31:12.236Z,8.71
2019-03-13T11:32:12.230Z,8.84
2019-03-13T11:33:12.223Z,8.86
2019-03-13T11:34:12.210Z,8.94
2019-03-13T11:35:12.188Z,9.02
2019-03-13T11:36:12.195Z,9.12
2019-03-13T11:37:12.172Z,9.04
2019-03-13T11:38:12.156Z,9.06
2019-03-13T11:39:12.145Z,9.06
2019-03-13T11:40:12.136Z,9.28
2019-03-13T11:41:12.121Z,9.38
2019-03-13T11:42:12.120Z,9.35
2019-03-13T11:43:12.097Z,9.49
2019-03-13T11:44:12.085Z,9.50
2019-03-13T11:45:12.121Z,9.58
2019-03-13T11:46:12.074Z,9.71
2019-03-13T11:47:12.054Z,9.83
2019-03-13T11:48:12.040Z,9.99
2019-03-13T11:49:12.035Z,9.91
2019-03-13T11:50:12.019Z,9.82
2019-03-13T11:51:12.045Z,9.78
2019-03-13T11:52:12.001Z,9.76
2019-03-13T11:53:12.001Z,9.76
2019-03-13T11:54:11.974Z,9.58
2019-03-13T11:55:11.962Z,9.49
2019-03-13T11:56:11.952Z,9.27
2019-03-13T11:57:11.954Z,9.23
2019-03-13T11:58:11.940Z,9.06
2019-03-13T11:59:11.917Z,8.94
2019-03-13T12:00:11.904Z,8.84
2019-03-13T12:01:11.910Z,8.72
2019-03-13T12:02:11.896Z,8.66
2019-03-13T12:03:11.877Z,8.75
2019-03-13T12:04:11.869Z,8.78
2019-03-13T12:05:11.848Z,8.86
2019-03-13T12:06:11.837Z,8.87
2019-03-13T12:07:11.855Z,8.90
2019-03-13T12:08:11.814Z,8.87
2019-03-13T12:09:11.808Z,8.99
2019-03-13T12:10:11.794Z,9.09
2019-03-13T12:11:11.783Z,9.20
2019-03-13T12:12:11.769Z,9.23
2019-03-13T12:13:11.774Z,9.13
2019-03-13T12:14:11.749Z,9.06
2019-03-13T12:15:11.742Z,9.06
2019-03-13T12:16:11.730Z,9.09
2019-03-13T12:17:11.726Z,9.09
2019-03-13T12:18:11.702Z,9.09
2019-03-13T12:19:11.689Z,9.10
2019-03-13T12:20:11.678Z,9.09
2019-03-13T12:21:11.666Z,9.06
2019-03-13T12:22:11.675Z,9.05
2019-03-13T12:23:11.674Z,8.99
2019-03-13T12:24:11.641Z,9.02
2019-03-13T12:25:11.620Z,8.93
2019-03-13T12:26:11.611Z,8.81
2019-03-13T12:27:11.599Z,8.75
2019-03-13T12:28:11.598Z,8.73
2019-03-13T12:29:11.599Z,8.73
2019-03-13T12:30:11.566Z,8.73
2019-03-13T12:31:14.058Z,8.88
2019-03-13T12:32:11.550Z,8.90
2019-03-13T12:33:11.538Z,9.05
2019-03-13T12:34:11.528Z,9.04
2019-03-13T12:35:11.538Z,9.09
2019-03-13T12:36:11.499Z,9.06
2019-03-13T12:37:11.488Z,9.10
2019-03-13T12:38:11.473Z,9.15
2019-03-13T12:39:11.463Z,9.35
2019-03-13T12:40:11.459Z,9.34
2019-03-13T12:41:11.455Z,9.43
2019-03-13T12:42:11.430Z,9.49
2019-03-13T12:43:11.416Z,9.42
2019-03-13T12:44:11.406Z,9.45
2019-03-13T12:45:11.405Z,9.35
2019-03-13T12:46:11.383Z,9.32
2019-03-13T12:47:11.376Z,9.40
2019-03-13T12:48:16.611Z,9.28
2019-03-13T12:49:12.350Z,9.20
2019-03-13T12:50:11.371Z,9.18
2019-03-13T12:51:11.325Z,9.20
2019-03-13T12:52:11.330Z,9.27
2019-03-13T12:53:11.308Z,9.35
2019-03-13T12:54:11.302Z,9.34
2019-03-13T12:55:11.279Z,9.43
2019-03-13T12:56:11.289Z,9.46
2019-03-13T12:57:11.259Z,9.61
2019-03-13T12:58:11.247Z,9.66
2019-03-13T12:59:11.236Z,9.68
2019-03-13T13:00:11.245Z,9.76
2019-03-13T13:01:11.286Z,9.75
2019-03-13T13:02:11.202Z,9.79
2019-03-13T13:03:11.190Z,9.96
2019-03-13T13:04:11.180Z,9.89
2019-03-13T13:05:11.174Z,9.94
2019-03-13T13:06:11.185Z,9.75
2019-03-13T13:07:11.152Z,9.71
2019-03-13T13:08:11.141Z,9.68
2019-03-13T13:09:11.140Z,9.52
2019-03-13T13:10:11.111Z,9.38
2019-03-13T13:11:11.136Z,9.25
2019-03-13T13:12:11.101Z,9.25
2019-03-13T13:13:11.079Z,9.05
2019-03-13T13:14:11.067Z,9.10
2019-03-13T13:15:11.055Z,9.18
2019-03-13T13:16:11.044Z,9.04
2019-03-13T13:17:11.043Z,9.12
2019-03-13T13:18:11.028Z,9.04